Date,TemperatureHighF,TemperatureAvgF,TemperatureLowF,DewpointHighF,DewpointAvgF,DewpointLowF,HumidityHigh,HumidityAvg,HumidityLow,PressureMaxIn,PressureMinIn,WindSpeedMaxMPH,WindSpeedAvgMPH,GustSpeedMaxMPH,PrecipitationSumIn
2014-2-1,79.3,75.7,72.8,73.2,71.9,70.7,97,88,78,30.20,30.11,12,4,18,0.00
2014-2-2,79.5,76.1,72.0,72.4,70.5,68.9,93,83,74,30.21,30.12,14,5,17,0.00
2014-2-3,79.9,76.5,73.6,74.0,72.0,70.0,92,86,79,30.17,30.08,12,5,16,0.00
2014-2-4,79.7,76.6,74.0,72.9,71.4,70.0,92,84,76,30.20,30.10,15,6,17,0.00
2014-2-5,80.5,75.4,69.9,73.9,71.8,68.0,96,89,78,30.15,30.05,14,4,16,0.40
2014-2-6,78.3,73.3,69.9,74.2,71.3,69.0,98,93,84,30.18,30.08,6,1,14,0.00
2014-2-7,77.7,70.4,62.8,71.3,67.7,61.9,98,91,76,30.20,30.11,6,2,9,0.00
2014-2-8,79.1,71.3,66.8,73.9,69.4,65.0,99,94,81,30.16,30.05,6,1,11,0.00
2014-2-9,76.2,67.8,63.7,68.4,64.3,61.3,98,89,74,30.15,30.05,6,2,11,0.00
2014-2-10,76.4,70.0,62.4,67.4,63.9,61.0,96,82,68,30.15,30.06,9,3,11,0.00
2014-2-11,78.8,74.0,66.1,70.7,67.5,63.3,96,80,73,30.13,30.03,12,4,15,0.00
2014-2-12,80.1,71.5,62.6,71.1,66.4,61.0,99,85,64,30.08,29.87,19,5,27,0.33
2014-2-13,69.5,64.4,54.9,66.8,58.0,48.8,99,81,59,30.03,29.79,16,7,31,0.02
2014-2-14,65.9,56.2,45.6,55.0,48.6,43.0,92,77,49,30.14,30.02,9,2,11,0.00
2014-2-15,76.4,66.2,53.8,61.8,56.0,41.4,92,71,53,30.18,30.02,16,6,23,0.00
2014-2-16,60.8,46.6,59.2,53.2,18.8,-99.9,79,60,76,30.24,-32.77,0,-222,21,0.00
2014-2-17,74.0,67.3,57.9,61.0,56.3,51.0,83,68,55,30.28,30.20,9,3,10,0.00
2014-2-18,75.4,70.8,61.4,65.0,61.2,56.0,95,72,56,30.30,30.22,9,3,12,0.00
2014-2-19,77.3,73.8,69.7,67.0,64.9,63.0,82,74,66,30.24,30.14,9,4,14,0.01
2014-2-20,79.0,75.8,72.7,71.0,67.8,64.0,86,76,67,30.23,30.14,12,7,16,0.01
2014-2-21,81.0,77.0,74.9,73.3,71.8,70.6,91,84,75,30.17,30.07,18,7,23,0.00
2014-2-22,82.0,75.3,70.1,73.8,71.2,69.0,98,87,70,30.17,30.06,13,3,20,0.08
2014-2-23,81.3,75.3,69.9,73.8,71.6,69.0,98,89,73,30.15,30.05,13,3,18,0.01
2014-2-24,83.7,75.2,68.6,72.0,69.5,63.0,97,84,51,30.10,30.02,9,2,13,0.00
2014-2-25,80.5,73.5,68.4,73.0,69.6,67.0,98,88,66,30.09,29.98,7,2,12,0.00
2014-2-26,84.2,74.3,65.6,71.0,66.3,60.1,99,79,46,30.02,29.80,18,5,23,0.01
2014-2-27,75.0,70.6,63.0,70.1,66.3,61.0,95,86,66,30.00,29.81,12,4,18,0.02
2014-2-28,70.1,64.1,58.8,62.0,58.3,52.0,97,83,53,30.14,29.95,8,3,16,0.18